createdAt,value
2019-02-14T00:01:39.203Z,98.20
2019-02-14T00:04:14.216Z,97.90
2019-02-14T00:06:49.564Z,98.10
2019-02-14T00:09:24.593Z,97.90
2019-02-14T00:11:59.958Z,97.80
2019-02-14T00:19:44.981Z,97.70
2019-02-14T00:22:20.306Z,97.70
2019-02-14T00:24:55.349Z,97.60
2019-02-14T00:30:09.522Z,97.30
2019-02-14T00:32:44.647Z,97.50
2019-02-14T00:35:25.212Z,97.40
2019-02-14T00:37:57.163Z,97.30
2019-02-14T00:40:32.188Z,97.30
2019-02-14T00:43:07.525Z,97.30
2019-02-14T00:45:42.550Z,97.40
2019-02-14T00:48:17.910Z,97.40
2019-02-14T00:50:52.946Z,97.40
2019-02-14T00:53:27.957Z,97.30
2019-02-14T00:56:03.009Z,97.20
2019-02-14T00:58:38.029Z,97.30
2019-02-14T01:01:13.396Z,97.30
2019-02-14T01:03:49.765Z,97.40
2019-02-14T01:06:25.102Z,97.30
2019-02-14T01:09:01.466Z,97.10
2019-02-14T01:11:39.045Z,97.10
2019-02-14T01:14:14.076Z,97.00
2019-02-14T01:16:49.101Z,97.00
2019-02-14T01:19:25.418Z,97.00
2019-02-14T01:22:00.499Z,96.80
2019-02-14T01:24:35.878Z,97.10
2019-02-14T01:27:11.225Z,97.00
2019-02-14T01:37:31.032Z,96.80
2019-02-14T01:42:41.736Z,96.50
2019-02-14T01:45:16.776Z,96.70
2019-02-14T01:47:52.213Z,96.70
2019-02-14T01:50:28.683Z,96.60
2019-02-14T01:53:04.044Z,96.60
2019-02-14T01:55:39.073Z,96.60
2019-02-14T01:58:14.382Z,96.60
2019-02-14T02:00:49.404Z,96.60
2019-02-14T02:03:24.778Z,96.70
2019-02-14T02:06:00.127Z,96.60
2019-02-14T02:08:35.489Z,96.60
2019-02-14T02:11:10.686Z,96.50
2019-02-14T02:13:46.057Z,96.60
2019-02-14T02:16:21.398Z,96.50
2019-02-14T02:18:56.423Z,96.60
2019-02-14T02:21:31.779Z,96.40
2019-02-14T02:24:07.123Z,96.40
2019-02-14T02:26:42.466Z,96.40
2019-02-14T02:29:17.485Z,96.40
2019-02-14T02:31:52.839Z,96.30
2019-02-14T02:34:27.978Z,96.30
2019-02-14T02:37:03.424Z,96.20
2019-02-14T02:39:40.505Z,96.20
2019-02-14T02:42:23.077Z,96.10
2019-02-14T02:45:05.099Z,96.00
2019-02-14T02:47:45.836Z,96.00
2019-02-14T02:50:27.970Z,95.90
2019-02-14T02:53:07.841Z,95.90
2019-02-14T02:55:42.930Z,95.90
2019-02-14T02:58:18.318Z,95.90
2019-02-14T03:00:53.978Z,95.80
2019-02-14T03:03:29.075Z,95.80
2019-02-14T03:06:10.256Z,95.80
2019-02-14T03:08:40.920Z,95.80
2019-02-14T03:11:15.953Z,95.80
2019-02-14T03:13:50.985Z,96.10
2019-02-14T03:16:26.033Z,95.80
2019-02-14T03:19:01.059Z,95.80
2019-02-14T03:21:37.093Z,95.70
2019-02-14T03:24:12.636Z,95.70
2019-02-14T03:26:48.008Z,95.70
2019-02-14T03:29:23.336Z,95.70
2019-02-14T03:31:58.368Z,95.60
2019-02-14T03:34:33.406Z,95.70
2019-02-14T03:37:09.158Z,95.70
2019-02-14T03:39:44.216Z,95.60
2019-02-14T03:42:19.546Z,95.60
2019-02-14T03:44:55.170Z,95.60
2019-02-14T03:47:30.201Z,95.60
2019-02-14T03:50:08.386Z,95.60
2019-02-14T03:52:43.521Z,95.70
2019-02-14T03:55:19.435Z,95.60
2019-02-14T03:57:54.476Z,95.70
2019-02-14T04:00:29.911Z,95.60
2019-02-14T04:03:04.954Z,95.60
2019-02-14T04:05:40.058Z,95.80
2019-02-14T04:08:15.104Z,95.40
2019-02-14T04:10:50.134Z,95.40
2019-02-14T04:13:25.603Z,95.40
2019-02-14T04:16:00.953Z,95.40
2019-02-14T04:18:37.168Z,95.40
2019-02-14T04:21:12.214Z,95.40
2019-02-14T04:23:47.249Z,95.40
2019-02-14T04:26:25.965Z,95.30
2019-02-14T04:29:01.894Z,95.30
2019-02-14T04:31:36.967Z,95.10
2019-02-14T04:44:30.757Z,95.10
2019-02-14T04:49:42.047Z,95.10
2019-02-14T04:52:17.478Z,94.70
2019-02-14T04:54:52.914Z,94.70
2019-02-14T04:57:27.961Z,94.70
2019-02-14T05:00:03.722Z,94.50
2019-02-14T05:02:38.759Z,94.40
2019-02-14T05:07:49.629Z,93.90
2019-02-14T05:10:26.410Z,94.20
2019-02-14T05:13:01.758Z,94.20
2019-02-14T05:15:36.861Z,94.00
2019-02-14T05:18:12.342Z,94.00
2019-02-14T05:20:48.375Z,94.00
2019-02-14T05:23:23.399Z,94.00
2019-02-14T05:25:58.546Z,93.90
2019-02-14T05:28:35.001Z,93.90
2019-02-14T05:31:10.058Z,93.80
2019-02-14T05:33:45.617Z,93.70
2019-02-14T05:36:21.166Z,93.60
2019-02-14T05:38:56.194Z,93.40
2019-02-14T05:41:31.227Z,93.30
2019-02-14T05:44:07.325Z,93.20
2019-02-14T05:46:42.349Z,93.10
2019-02-14T05:49:17.395Z,93.20
2019-02-14T05:51:52.709Z,93.20
2019-02-14T05:54:27.759Z,93.20
2019-02-14T05:57:03.193Z,93.20
2019-02-14T05:59:38.554Z,93.10
2019-02-14T06:02:15.661Z,93.20
2019-02-14T06:04:50.692Z,93.10
2019-02-14T06:10:00.552Z,93.10
2019-02-14T06:17:45.468Z,93.40
2019-02-14T06:22:55.497Z,93.30
2019-02-14T06:25:30.539Z,93.00
2019-02-14T06:28:05.555Z,93.10
2019-02-14T06:30:41.218Z,93.10
2019-02-14T06:35:50.765Z,93.50
2019-02-14T06:41:03.676Z,93.20
2019-02-14T06:46:13.437Z,93.00
2019-02-14T06:48:48.464Z,92.60
2019-02-14T06:53:58.403Z,92.60
2019-02-14T06:56:33.826Z,92.40
2019-02-14T06:59:09.257Z,92.40
2019-02-14T07:01:44.566Z,92.30
2019-02-14T07:04:20.073Z,92.30
2019-02-14T07:06:55.117Z,92.30
2019-02-14T07:09:30.536Z,92.20
2019-02-14T07:12:05.876Z,92.10
2019-02-14T07:14:40.903Z,92.00
2019-02-14T07:17:16.250Z,91.80
2019-02-14T07:19:51.301Z,91.80
2019-02-14T07:22:26.370Z,91.80
2019-02-14T07:27:36.091Z,92.10
2019-02-14T07:30:14.028Z,91.60
2019-02-14T07:32:49.162Z,91.60
2019-02-14T07:35:24.190Z,91.50
2019-02-14T07:40:33.737Z,91.20
2019-02-14T07:43:09.197Z,91.30
2019-02-14T07:53:28.613Z,90.90
2019-02-14T07:56:03.652Z,91.10
2019-02-14T07:58:38.992Z,91.00
2019-02-14T08:01:14.115Z,91.00
2019-02-14T08:03:50.031Z,90.70
2019-02-14T08:06:25.154Z,90.60
2019-02-14T08:11:35.579Z,90.20
2019-02-14T08:14:10.912Z,90.20
2019-02-14T08:16:45.952Z,89.80
2019-02-14T08:19:20.974Z,89.90
2019-02-14T08:21:58.551Z,89.40
2019-02-14T08:27:08.216Z,88.40
2019-02-14T08:34:53.206Z,88.30
2019-02-14T08:37:28.582Z,88.10
2019-02-14T08:40:04.680Z,88.10
2019-02-14T08:50:23.943Z,87.00
2019-02-14T08:55:33.894Z,86.80
2019-02-14T08:58:09.262Z,85.40
2019-02-14T09:03:18.955Z,83.90
2019-02-14T09:05:53.990Z,83.50
2019-02-14T09:08:30.580Z,82.90
2019-02-14T09:13:41.643Z,81.60
2019-02-14T09:16:17.668Z,82.10
2019-02-14T09:21:27.610Z,81.50
2019-02-14T09:26:38.519Z,81.80
2019-02-14T09:29:14.761Z,79.60
2019-02-14T09:31:49.900Z,79.70
2019-02-14T09:34:25.030Z,78.70
2019-02-14T09:47:21.720Z,77.10
2019-02-14T09:49:57.302Z,76.50
2019-02-14T09:52:35.827Z,76.90
2019-02-14T09:55:14.679Z,76.80
2019-02-14T09:57:50.138Z,74.80
2019-02-14T10:00:26.086Z,74.10
2019-02-14T10:05:36.671Z,71.80
2019-02-14T10:08:13.274Z,71.80
2019-02-14T10:10:48.399Z,70.80
2019-02-14T10:13:23.805Z,69.20
2019-02-14T10:15:58.955Z,69.10
2019-02-14T10:18:35.522Z,69.10
2019-02-14T10:21:10.648Z,69.50
2019-02-14T10:26:24.425Z,68.60
2019-02-14T10:28:59.744Z,69.50
2019-02-14T10:31:34.799Z,69.90
2019-02-14T10:34:09.848Z,70.00
2019-02-14T10:36:44.955Z,70.90
2019-02-14T10:39:20.330Z,71.40
2019-02-14T10:41:55.363Z,71.80
2019-02-14T10:44:30.507Z,71.90
2019-02-14T10:49:40.709Z,71.80
2019-02-14T10:52:15.828Z,70.60
2019-02-14T11:00:00.837Z,68.90
2019-02-14T11:02:35.922Z,68.50
2019-02-14T11:18:06.283Z,63.70
2019-02-14T11:25:51.175Z,59.60
2019-02-14T11:28:26.281Z,58.60
2019-02-14T11:31:01.517Z,57.40
2019-02-14T11:33:36.554Z,56.90
2019-02-14T11:36:11.596Z,57.50
2019-02-14T11:38:46.641Z,56.60
2019-02-14T11:41:24.910Z,56.90
2019-02-14T11:43:59.949Z,56.30
2019-02-14T11:46:35.360Z,56.90
2019-02-14T11:49:10.709Z,57.90
2019-02-14T11:51:45.773Z,58.00
2019-02-14T11:54:21.194Z,59.10
2019-02-14T11:56:56.766Z,60.20
2019-02-14T11:59:32.351Z,61.10
2019-02-14T12:02:07.845Z,61.50
2019-02-14T12:04:42.857Z,62.20
2019-02-14T12:07:17.910Z,62.60
2019-02-14T12:09:52.921Z,62.70
2019-02-14T12:12:28.013Z,63.10
2019-02-14T12:15:03.391Z,63.20
2019-02-14T12:17:38.530Z,63.60
2019-02-14T12:20:15.672Z,63.60
2019-02-14T12:22:50.717Z,63.50
2019-02-14T12:25:32.059Z,63.60
2019-02-14T12:28:07.509Z,63.70
2019-02-14T12:30:44.136Z,64.00
2019-02-14T12:33:19.248Z,64.00
2019-02-14T12:35:54.310Z,63.80
2019-02-14T12:38:29.608Z,64.00
2019-02-14T12:41:04.657Z,64.50
2019-02-14T12:43:39.693Z,64.60
2019-02-14T12:46:14.769Z,64.80
2019-02-14T12:48:50.067Z,64.30
2019-02-14T12:51:25.110Z,64.40
2019-02-14T12:54:00.154Z,64.50
2019-02-14T12:56:35.200Z,64.70
2019-02-14T12:59:10.440Z,64.80
2019-02-14T13:01:46.371Z,64.70
2019-02-14T13:04:23.029Z,64.50
2019-02-14T13:06:58.077Z,64.80
2019-02-14T13:09:33.126Z,64.60
2019-02-14T13:12:08.176Z,64.50
2019-02-14T13:14:44.158Z,64.30
2019-02-14T13:17:19.193Z,64.50
2019-02-14T13:19:54.530Z,64.60
2019-02-14T13:22:29.551Z,64.60
2019-02-14T13:25:07.218Z,64.60
2019-02-14T13:27:42.574Z,64.60
2019-02-14T13:30:20.618Z,65.00
2019-02-14T13:32:56.804Z,64.90
2019-02-14T13:35:31.896Z,64.50
2019-02-14T13:38:07.832Z,64.00
2019-02-14T13:40:42.891Z,64.50
2019-02-14T13:43:21.913Z,64.70
2019-02-14T13:45:56.950Z,64.50
2019-02-14T13:48:31.996Z,64.20
2019-02-14T13:51:07.514Z,64.60
2019-02-14T13:53:42.873Z,64.90
2019-02-14T13:56:17.947Z,64.80
2019-02-14T13:58:53.088Z,65.00
2019-02-14T14:01:29.306Z,64.60
2019-02-14T14:04:04.387Z,64.60
2019-02-14T14:06:39.534Z,64.70
2019-02-14T14:09:14.733Z,64.70
2019-02-14T14:11:49.757Z,64.80
2019-02-14T14:14:27.945Z,65.30
2019-02-14T14:17:03.249Z,64.80
2019-02-14T14:19:39.573Z,64.50
2019-02-14T14:22:15.976Z,64.60
2019-02-14T14:24:51.386Z,64.70
2019-02-14T14:27:26.750Z,64.40
2019-02-14T14:30:02.104Z,64.40
2019-02-14T14:32:37.519Z,64.60
2019-02-14T14:35:12.602Z,65.00
2019-02-14T14:37:48.879Z,64.40
2019-02-14T14:40:25.328Z,64.30
2019-02-14T14:43:13.033Z,64.40
2019-02-14T14:45:57.489Z,64.80
2019-02-14T14:48:34.436Z,64.60
2019-02-14T14:51:09.924Z,64.60
2019-02-14T14:53:44.950Z,64.60
2019-02-14T14:56:20.298Z,64.80
2019-02-14T14:58:56.034Z,64.70
2019-02-14T15:01:31.426Z,64.60
2019-02-14T15:04:07.447Z,65.70
2019-02-14T15:06:44.465Z,66.10
2019-02-14T15:09:20.603Z,66.20
2019-02-14T15:11:55.630Z,67.20
2019-02-14T15:14:31.696Z,66.90
2019-02-14T15:17:06.735Z,66.60
2019-02-14T15:19:42.298Z,66.40
2019-02-14T15:22:17.467Z,66.80
2019-02-14T15:24:52.607Z,66.80
2019-02-14T15:27:27.661Z,67.10
2019-02-14T15:30:02.783Z,67.40
2019-02-14T15:32:37.879Z,67.70
2019-02-14T15:35:12.942Z,67.70
2019-02-14T15:37:48.350Z,68.20
2019-02-14T15:40:23.527Z,68.00
2019-02-14T15:42:58.644Z,68.10
2019-02-14T15:45:33.776Z,68.50
2019-02-14T15:48:08.799Z,68.80
2019-02-14T15:50:44.117Z,69.20
2019-02-14T15:53:21.346Z,69.20
2019-02-14T15:55:56.770Z,69.30
2019-02-14T15:58:33.110Z,69.40
2019-02-14T16:01:09.248Z,69.30
2019-02-14T16:03:44.363Z,69.40
2019-02-14T16:06:19.449Z,69.60
2019-02-14T16:08:56.364Z,69.80
2019-02-14T16:11:33.866Z,70.00
2019-02-14T16:14:09.476Z,69.80
2019-02-14T16:16:47.248Z,70.20
2019-02-14T16:19:22.637Z,70.40
2019-02-14T16:21:58.874Z,70.70
2019-02-14T16:24:34.489Z,71.00
2019-02-14T16:27:09.583Z,70.90
2019-02-14T16:29:44.639Z,71.20
2019-02-14T16:32:20.181Z,71.40
2019-02-14T16:34:55.293Z,71.60
2019-02-14T16:37:30.418Z,71.70
2019-02-14T16:40:08.859Z,72.00
2019-02-14T16:42:44.075Z,72.30
2019-02-14T16:45:19.425Z,73.40
2019-02-14T16:47:55.478Z,73.10
2019-02-14T16:50:30.509Z,73.20
2019-02-14T16:53:05.562Z,73.50
2019-02-14T16:55:40.767Z,73.80
2019-02-14T16:58:15.915Z,73.70
2019-02-14T17:00:52.020Z,74.40
2019-02-14T17:03:27.292Z,74.00
2019-02-14T17:06:02.325Z,74.40
2019-02-14T17:08:38.378Z,74.70
2019-02-14T17:11:14.416Z,75.10
2019-02-14T17:13:49.528Z,75.50
2019-02-14T17:16:26.819Z,75.40
2019-02-14T17:19:02.154Z,75.70
2019-02-14T17:21:37.269Z,75.90
2019-02-14T17:24:12.730Z,76.10
2019-02-14T17:26:48.041Z,76.10
2019-02-14T17:29:29.329Z,76.30
2019-02-14T17:32:06.238Z,76.50
2019-02-14T17:34:44.320Z,76.80
2019-02-14T17:37:19.342Z,77.50
2019-02-14T17:39:55.595Z,78.40
2019-02-14T17:42:30.692Z,77.80
2019-02-14T17:45:09.420Z,78.30
2019-02-14T17:47:44.614Z,78.40
2019-02-14T17:50:20.656Z,78.70
2019-02-14T17:52:56.603Z,79.20
2019-02-14T17:55:31.722Z,79.40
2019-02-14T17:58:06.799Z,79.30
2019-02-14T18:00:42.724Z,79.40
2019-02-14T18:03:17.908Z,79.50
2019-02-14T18:05:53.361Z,80.00
2019-02-14T18:08:28.427Z,80.30
2019-02-14T18:11:03.519Z,81.30
2019-02-14T18:13:40.730Z,81.60
2019-02-14T18:18:51.288Z,80.60
2019-02-14T18:21:26.649Z,81.70
2019-02-14T18:24:01.791Z,81.30
2019-02-14T18:29:13.091Z,81.00
2019-02-14T18:31:49.453Z,81.30
2019-02-14T18:34:24.496Z,81.50
2019-02-14T18:36:59.591Z,82.30
2019-02-14T18:39:34.979Z,82.70
2019-02-14T18:42:10.349Z,84.00
2019-02-14T18:44:47.324Z,83.40
2019-02-14T18:47:22.659Z,83.60
2019-02-14T18:49:58.533Z,84.00
2019-02-14T18:52:33.874Z,84.30
2019-02-14T18:55:12.534Z,85.10
2019-02-14T18:57:47.607Z,85.10
2019-02-14T19:21:04.748Z,86.40
2019-02-14T19:31:27.665Z,85.60
2019-02-14T19:41:47.284Z,85.70
2019-02-14T19:54:41.143Z,85.60
2019-02-14T19:57:17.330Z,84.80
2019-02-14T19:59:52.394Z,85.00
2019-02-14T20:23:07.871Z,84.40
2019-02-14T20:41:13.427Z,83.30
2019-02-14T20:51:38.528Z,80.30
2019-02-14T20:54:10.050Z,80.10
2019-02-14T21:04:32.126Z,78.60
2019-02-14T21:17:27.679Z,78.80
2019-02-14T21:22:37.721Z,78.50
2019-02-14T21:25:13.336Z,78.60
2019-02-14T21:27:48.572Z,78.50
2019-02-14T21:30:23.650Z,78.50
2019-02-14T21:35:33.417Z,78.70
2019-02-14T21:43:18.988Z,78.50
2019-02-14T21:45:54.144Z,79.30
2019-02-14T21:48:29.227Z,78.30
2019-02-14T21:51:04.676Z,78.30
2019-02-14T21:53:39.837Z,78.30
2019-02-14T21:58:50.033Z,77.50
2019-02-14T22:01:26.830Z,78.80
2019-02-14T22:06:37.869Z,78.80
2019-02-14T22:09:13.023Z,78.20
2019-02-14T22:14:23.801Z,78.00
2019-02-14T22:16:58.935Z,80.10
2019-02-14T22:19:35.206Z,80.60
2019-02-14T22:22:10.529Z,80.20
2019-02-14T22:24:45.959Z,80.20
2019-02-14T22:27:20.985Z,80.20
2019-02-14T22:29:56.036Z,80.00
2019-02-14T22:32:31.097Z,79.70
2019-02-14T22:37:41.104Z,79.00
2019-02-14T22:40:16.214Z,78.50
2019-02-14T22:42:51.534Z,78.90
2019-02-14T22:45:27.078Z,78.90
2019-02-14T22:50:38.402Z,80.00
2019-02-14T22:53:13.504Z,80.10
2019-02-14T22:55:48.955Z,80.70
2019-02-14T22:58:24.056Z,81.30
2019-02-14T23:01:00.140Z,82.00
2019-02-14T23:06:12.290Z,82.20
2019-02-14T23:08:47.630Z,82.90
2019-02-14T23:11:22.668Z,83.20
2019-02-14T23:13:57.686Z,85.10
2019-02-14T23:16:32.721Z,84.60
2019-02-14T23:19:08.063Z,84.90
2019-02-14T23:21:43.201Z,84.00
2019-02-14T23:24:18.602Z,84.80
2019-02-14T23:26:53.657Z,84.90
2019-02-14T23:29:28.769Z,85.90
2019-02-14T23:34:38.885Z,86.20
2019-02-14T23:37:14.235Z,86.10
2019-02-14T23:39:49.569Z,87.50
2019-02-14T23:42:25.328Z,87.10
2019-02-14T23:45:00.383Z,88.30
2019-02-14T23:47:35.704Z,88.10
2019-02-14T23:50:11.531Z,88.90
2019-02-14T23:52:46.581Z,89.10
2019-02-14T23:55:21.662Z,89.60
2019-02-14T23:57:56.708Z,90.00
